createdAt,value
2023-03-20T04:14:33.550Z,98417.31
2023-03-20T04:17:00.569Z,98454.00
2023-03-20T04:19:28.392Z,98458.78
2023-03-20T04:21:55.333Z,98407.50
2023-03-20T04:24:22.050Z,98357.22
2023-03-20T04:26:48.807Z,98335.44
2023-03-20T04:29:15.962Z,98348.78
2023-03-20T04:32:01.635Z,98335.63
2023-03-20T04:34:44.848Z,98354.63
2023-03-20T04:37:27.241Z,98380.97
2023-03-20T04:40:04.850Z,98478.53
2023-03-20T04:42:31.724Z,98432.44
2023-03-20T04:45:02.401Z,98465.81
2023-03-20T04:47:30.139Z,98514.09
2023-03-20T04:49:57.090Z,98442.38
2023-03-20T04:52:23.608Z,98394.06
2023-03-20T04:54:50.845Z,98383.00
2023-03-20T04:57:17.415Z,98352.44
2023-03-20T04:59:44.431Z,98370.31
2023-03-20T05:02:17.486Z,98369.66
2023-03-20T05:04:44.003Z,98394.28
2023-03-20T05:07:11.452Z,98439.69
2023-03-20T05:09:47.890Z,98523.59
2023-03-20T05:12:14.944Z,98551.44
2023-03-20T05:15:01.729Z,98514.22
2023-03-20T05:17:47.764Z,98588.84
2023-03-20T05:20:27.282Z,98493.00
2023-03-20T05:23:26.085Z,98415.47
2023-03-20T05:26:12.558Z,98568.94
2023-03-20T05:29:08.007Z,98581.41
2023-03-20T05:31:48.099Z,98523.50
2023-03-20T05:34:25.596Z,98461.03
2023-03-20T05:37:01.608Z,98422.97
2023-03-20T05:39:46.919Z,98410.84
2023-03-20T05:42:16.201Z,98455.00
2023-03-20T05:45:09.990Z,98482.75
2023-03-20T05:47:59.174Z,98421.97
2023-03-20T05:50:26.121Z,98459.91
2023-03-20T05:53:07.515Z,98413.19
2023-03-20T05:55:52.822Z,98413.19
2023-03-20T05:58:48.253Z,98399.41
2023-03-20T06:01:27.231Z,98405.81
2023-03-20T06:03:57.089Z,98403.19
2023-03-20T06:06:43.740Z,98412.19
2023-03-20T06:09:10.484Z,98421.75
2023-03-20T06:11:37.789Z,98410.97
2023-03-20T06:14:05.717Z,98426.69
2023-03-20T06:16:37.885Z,98419.38
2023-03-20T06:19:04.788Z,98445.16
2023-03-20T06:21:32.654Z,98441.22
2023-03-20T06:23:59.941Z,98448.94
2023-03-20T06:26:28.049Z,98438.19
2023-03-20T06:29:02.446Z,98452.41
2023-03-20T06:31:30.467Z,98440.66
2023-03-20T06:33:59.388Z,98449.97
2023-03-20T06:36:26.253Z,98471.44
2023-03-20T06:39:00.623Z,98473.94
2023-03-20T06:41:34.576Z,98467.81
2023-03-20T06:44:04.984Z,98462.28
2023-03-20T06:46:51.846Z,98463.81
2023-03-20T06:49:19.289Z,98493.00
2023-03-20T06:51:47.823Z,98523.31
2023-03-20T06:54:22.257Z,98500.09
2023-03-20T06:56:49.024Z,98496.88
2023-03-20T06:59:15.623Z,98530.63
2023-03-20T07:01:42.582Z,98543.63
2023-03-20T07:04:09.149Z,98500.16
2023-03-20T07:06:42.636Z,98514.31
2023-03-20T07:09:10.110Z,98474.59
2023-03-20T07:11:36.663Z,98539.81
2023-03-20T07:14:03.642Z,98568.75
2023-03-20T07:16:47.161Z,98604.88
2023-03-20T07:19:14.183Z,98577.09
2023-03-20T07:21:43.883Z,98605.47
2023-03-20T07:24:12.146Z,98578.16
2023-03-20T07:26:38.769Z,98515.06
2023-03-20T07:29:08.427Z,98518.50
2023-03-20T07:31:35.840Z,98483.88
2023-03-20T07:34:18.615Z,98494.47
2023-03-20T07:36:45.941Z,98485.25
2023-03-20T07:39:17.810Z,98484.53
2023-03-20T07:41:53.554Z,98447.31
2023-03-20T07:44:36.396Z,98437.09
2023-03-20T07:47:08.189Z,98433.56
2023-03-20T07:49:35.330Z,98481.78
2023-03-20T07:52:01.930Z,98454.69
2023-03-20T07:54:30.821Z,98426.09
2023-03-20T07:56:58.004Z,98445.31
2023-03-20T07:59:24.737Z,98475.44
2023-03-20T08:01:53.432Z,98466.72
2023-03-20T08:04:22.671Z,98460.34
2023-03-20T08:06:50.283Z,98472.81
2023-03-20T08:09:18.289Z,98482.75
2023-03-20T08:11:45.398Z,98483.44
2023-03-20T08:14:12.571Z,98502.31
2023-03-20T08:16:39.319Z,98506.47
2023-03-20T08:19:06.681Z,98501.66
2023-03-20T08:21:33.872Z,98481.22
2023-03-20T08:24:00.467Z,98442.91
2023-03-20T08:26:27.055Z,98487.88
2023-03-20T08:28:53.717Z,98468.75
2023-03-20T08:31:20.469Z,98432.34
2023-03-20T08:33:47.981Z,98430.69
2023-03-20T08:36:15.850Z,98443.59
2023-03-20T08:38:43.367Z,98421.41
2023-03-20T08:41:09.935Z,98433.97
2023-03-20T08:43:36.574Z,98442.97
2023-03-20T08:46:03.943Z,98429.69
2023-03-20T08:48:30.512Z,98461.66
2023-03-20T08:50:57.111Z,98455.66
2023-03-20T08:53:23.721Z,98443.00
2023-03-20T08:55:52.050Z,98438.91
2023-03-20T08:58:20.741Z,98434.19
2023-03-20T09:00:50.567Z,98466.69
2023-03-20T09:03:19.422Z,98456.47
2023-03-20T09:05:47.739Z,98447.25
2023-03-20T09:08:14.450Z,98441.59
2023-03-20T09:10:41.413Z,98441.31
2023-03-20T09:13:25.714Z,98446.16
2023-03-20T09:15:54.917Z,98456.63
2023-03-20T09:18:21.699Z,98436.09
2023-03-20T09:20:49.224Z,98448.78
2023-03-20T09:23:15.911Z,98454.13
2023-03-20T09:25:42.592Z,98450.00
2023-03-20T09:28:09.328Z,98459.22
2023-03-20T09:30:36.372Z,98446.59
2023-03-20T09:33:03.116Z,98442.91
2023-03-20T09:35:29.689Z,98457.16
2023-03-20T09:37:56.672Z,98450.66
2023-03-20T09:40:31.439Z,98458.03
2023-03-20T09:43:09.888Z,98459.72
2023-03-20T09:45:50.153Z,98468.91
2023-03-20T09:48:29.448Z,98498.44
2023-03-20T09:51:09.686Z,98477.03
2023-03-20T09:53:44.374Z,98466.50
2023-03-20T09:56:18.086Z,98453.44
2023-03-20T09:58:51.352Z,98464.59
2023-03-20T10:01:20.867Z,98467.63
2023-03-20T10:03:51.109Z,98484.03
2023-03-20T10:06:18.402Z,98449.50
2023-03-20T10:08:46.678Z,98457.53
2023-03-20T10:11:50.463Z,98453.47
2023-03-20T10:14:26.138Z,98440.03
2023-03-20T10:17:04.001Z,98448.22
2023-03-20T10:19:35.593Z,98449.25
2023-03-20T10:22:16.240Z,98439.94
2023-03-20T10:24:49.794Z,98452.88
2023-03-20T10:27:28.076Z,98452.59
2023-03-20T10:30:05.064Z,98457.97
2023-03-20T10:32:34.910Z,98453.38
2023-03-20T10:35:19.677Z,98450.63
2023-03-20T10:38:08.005Z,98440.81
2023-03-20T10:40:38.481Z,98460.31
2023-03-20T10:43:14.091Z,98450.03
2023-03-20T10:46:01.632Z,98449.34
2023-03-20T10:48:41.033Z,98450.44
2023-03-20T10:51:15.839Z,98468.97
2023-03-20T10:53:53.620Z,98472.09
2023-03-20T10:56:25.799Z,98448.44
2023-03-20T10:59:19.238Z,98445.78
2023-03-20T11:01:45.969Z,98443.72
2023-03-20T11:04:12.511Z,98457.03
2023-03-20T11:06:53.979Z,98466.78
2023-03-20T11:09:23.266Z,98437.19
2023-03-20T11:11:56.304Z,98454.31
2023-03-20T11:14:27.012Z,98453.50
2023-03-20T11:17:00.517Z,98449.66
2023-03-20T11:19:27.331Z,98420.91
2023-03-20T11:21:56.860Z,98441.09
2023-03-20T11:24:34.101Z,98444.81
2023-03-20T11:27:19.625Z,98438.31
2023-03-20T11:29:49.632Z,98456.28
2023-03-20T11:32:39.343Z,98479.34
2023-03-20T11:35:27.008Z,98481.13
2023-03-20T11:37:56.376Z,98424.31
2023-03-20T11:40:26.057Z,98445.13
2023-03-20T11:42:55.653Z,98447.91
2023-03-20T11:45:23.490Z,98423.56
2023-03-20T11:47:56.862Z,98381.06
2023-03-20T11:50:38.151Z,98397.66
2023-03-20T11:53:19.479Z,98436.09
2023-03-20T11:56:06.394Z,98432.38
2023-03-20T11:58:35.975Z,98457.38
2023-03-20T12:01:03.858Z,98454.59
2023-03-20T12:03:43.490Z,98427.47
2023-03-20T12:06:21.738Z,98433.31
2023-03-20T12:08:54.234Z,98440.19
2023-03-20T12:12:00.032Z,98478.78
2023-03-20T12:14:40.388Z,98506.41
2023-03-20T12:17:24.796Z,98550.63
2023-03-20T12:19:54.269Z,98582.47
2023-03-20T12:22:31.449Z,98558.72
2023-03-20T12:25:28.420Z,98548.34
2023-03-20T12:28:03.787Z,98484.56
2023-03-20T12:30:36.971Z,98447.03
2023-03-20T12:33:14.135Z,98450.22
2023-03-20T12:35:48.529Z,98445.06
2023-03-20T12:38:35.460Z,98431.16
2023-03-20T12:41:12.301Z,98422.69
2023-03-20T12:44:03.780Z,98411.91
2023-03-20T12:47:01.616Z,98388.94
2023-03-20T12:50:26.161Z,98415.22
2023-03-20T12:53:01.671Z,98422.81
2023-03-20T12:55:44.399Z,98378.63
2023-03-20T12:58:32.056Z,98372.25
2023-03-20T13:01:13.181Z,98358.66
2023-03-20T13:03:39.701Z,98339.06
2023-03-20T13:06:19.801Z,98323.41
2023-03-20T13:09:15.953Z,98338.00
2023-03-20T13:11:54.574Z,98364.63
2023-03-20T13:14:38.362Z,98375.53
2023-03-20T13:17:13.752Z,98375.97
2023-03-20T13:19:59.778Z,98382.41
2023-03-20T13:22:35.851Z,98320.59
2023-03-20T13:25:23.837Z,98333.66
2023-03-20T13:28:30.942Z,98324.75
2023-03-20T13:31:21.352Z,98352.59
2023-03-20T13:33:55.366Z,98344.84
2023-03-20T13:36:42.817Z,98351.09
2023-03-20T13:39:16.345Z,98384.88
2023-03-20T13:41:46.634Z,98398.16
2023-03-20T13:44:17.021Z,98420.94
2023-03-20T13:46:45.919Z,98439.09
2023-03-20T13:49:20.403Z,98443.38
2023-03-20T13:52:21.117Z,98442.41
2023-03-20T13:55:14.124Z,98400.31
2023-03-20T13:58:08.527Z,98384.69
2023-03-20T14:01:00.858Z,98397.94
2023-03-20T14:03:34.565Z,98468.09
2023-03-20T14:06:01.482Z,98474.72
2023-03-20T14:08:27.993Z,98466.41
2023-03-20T14:11:04.916Z,98491.31
2023-03-20T14:13:33.040Z,98465.72
2023-03-20T14:16:03.253Z,98445.28
2023-03-20T14:18:31.183Z,98469.50
2023-03-20T14:21:01.103Z,98475.06
2023-03-20T14:23:42.230Z,98451.66
2023-03-20T14:26:22.884Z,98463.34
2023-03-20T14:29:21.762Z,98445.44
2023-03-20T14:31:50.328Z,98456.69
2023-03-20T14:34:21.209Z,98469.16
2023-03-20T14:36:57.560Z,98458.91
2023-03-20T14:39:51.514Z,98421.03
2023-03-20T14:42:50.138Z,98413.16
2023-03-20T14:45:43.123Z,98423.84
2023-03-20T14:48:45.884Z,98406.75
2023-03-20T14:51:38.232Z,98411.28
2023-03-20T14:54:25.083Z,98378.44
2023-03-20T14:56:52.891Z,98376.03
2023-03-20T14:59:23.783Z,98381.31
2023-03-20T15:01:56.279Z,98362.16
2023-03-20T15:04:35.369Z,98385.75
2023-03-20T15:07:14.312Z,98373.94
2023-03-20T15:09:44.699Z,98371.47
2023-03-20T15:12:19.801Z,98397.72
2023-03-20T15:14:55.223Z,98361.31
2023-03-20T15:17:26.558Z,98352.44
2023-03-20T15:20:02.826Z,98327.31
2023-03-20T15:22:29.357Z,98344.16
2023-03-20T15:24:57.385Z,98308.06
2023-03-20T15:27:26.306Z,98318.91
2023-03-20T15:29:55.462Z,98326.66
2023-03-20T15:32:22.409Z,98334.06
2023-03-20T15:34:51.144Z,98300.38
2023-03-20T15:37:23.406Z,98335.31
2023-03-20T15:39:56.067Z,98333.72
2023-03-20T15:42:25.536Z,98331.84
2023-03-20T15:44:54.286Z,98264.44
2023-03-20T15:47:23.500Z,98302.94
2023-03-20T15:50:00.016Z,98284.06
2023-03-20T15:52:32.311Z,98311.53
2023-03-20T15:55:04.221Z,98321.25
2023-03-20T15:57:39.854Z,98299.69
2023-03-20T16:00:14.110Z,98295.72
2023-03-20T16:02:41.409Z,98271.47
2023-03-20T16:05:15.451Z,98272.88
2023-03-20T16:07:42.459Z,98291.03
2023-03-20T16:10:43.088Z,98288.25
2023-03-20T16:13:14.012Z,98279.84
2023-03-20T16:15:40.868Z,98289.06
2023-03-20T16:18:10.743Z,98287.53
2023-03-20T16:20:42.839Z,98312.16
2023-03-20T16:23:09.943Z,98305.00
2023-03-20T16:25:38.002Z,98313.38
2023-03-20T16:28:08.611Z,98320.03
2023-03-20T16:30:36.389Z,98323.25
2023-03-20T16:33:15.513Z,98280.22
2023-03-20T16:35:48.776Z,98321.19
2023-03-20T16:38:31.213Z,98336.50
2023-03-20T16:41:15.962Z,98315.47
2023-03-20T16:43:47.660Z,98302.00
2023-03-20T16:46:41.242Z,98284.78
2023-03-20T16:49:41.011Z,98308.16
2023-03-20T16:52:14.620Z,98289.34
2023-03-20T16:54:41.433Z,98290.81
2023-03-20T16:57:10.099Z,98299.78
2023-03-20T16:59:39.734Z,98318.22
2023-03-20T17:02:29.798Z,98262.03
2023-03-20T17:05:01.267Z,98251.69
2023-03-20T17:07:28.446Z,98254.75
2023-03-20T17:09:58.578Z,98276.09
2023-03-20T17:12:30.717Z,98276.66
2023-03-20T17:14:57.217Z,98264.34
2023-03-20T17:17:25.002Z,98282.28
2023-03-20T17:19:52.910Z,98294.16
2023-03-20T17:22:22.204Z,98280.38
2023-03-20T17:24:49.463Z,98275.00
2023-03-20T17:27:16.885Z,98284.28
2023-03-20T17:29:44.606Z,98290.88
2023-03-20T17:32:13.359Z,98299.41
2023-03-20T17:34:40.241Z,98282.84
2023-03-20T17:37:11.535Z,98271.50
2023-03-20T17:39:38.142Z,98252.22
2023-03-20T17:42:31.105Z,98261.28
2023-03-20T17:44:59.276Z,98285.41
2023-03-20T17:47:27.601Z,98275.38
2023-03-20T17:49:54.877Z,98266.81
2023-03-20T17:52:24.113Z,98273.44
2023-03-20T17:54:51.317Z,98278.59
2023-03-20T17:57:36.547Z,98298.25
2023-03-20T18:00:09.928Z,98273.75
2023-03-20T18:02:36.535Z,98292.63
2023-03-20T18:05:21.668Z,98288.50
2023-03-20T18:08:23.426Z,98290.75
2023-03-20T18:11:10.332Z,98300.03
2023-03-20T18:13:57.229Z,98285.53
2023-03-20T18:16:44.090Z,98298.91
2023-03-20T18:19:31.199Z,98304.75
2023-03-20T18:22:18.057Z,98309.53
2023-03-20T18:25:05.412Z,98308.09
2023-03-20T18:27:53.071Z,98288.28
2023-03-20T18:30:41.910Z,98279.00
2023-03-20T18:33:28.818Z,98285.94
2023-03-20T18:36:17.790Z,98280.81
2023-03-20T18:39:05.758Z,98302.50
2023-03-20T18:41:52.638Z,98292.56
2023-03-20T18:44:39.510Z,98293.03
2023-03-20T18:47:26.386Z,98278.91
2023-03-20T18:50:24.237Z,98259.94
2023-03-20T18:53:11.273Z,98265.19
2023-03-20T18:55:58.223Z,98297.16
2023-03-20T18:58:46.365Z,98292.59
2023-03-20T19:01:34.462Z,98292.13
2023-03-20T19:04:23.222Z,98284.56
2023-03-20T19:07:12.865Z,98286.75
2023-03-20T19:09:59.702Z,98273.22
2023-03-20T19:12:46.848Z,98289.56
2023-03-20T19:15:36.383Z,98290.25
2023-03-20T19:18:26.041Z,98288.41
2023-03-20T19:21:12.915Z,98286.16
2023-03-20T19:24:02.162Z,98300.72
2023-03-20T19:26:49.035Z,98300.28
2023-03-20T19:29:35.876Z,98297.22
2023-03-20T19:32:22.800Z,98298.00
2023-03-20T19:38:22.105Z,98300.03
2023-03-20T19:41:08.946Z,98296.31
2023-03-20T19:43:56.633Z,98304.22
2023-03-20T19:46:43.543Z,98286.50
2023-03-20T19:49:32.908Z,98298.53
2023-03-20T19:52:30.462Z,98292.88
2023-03-20T19:55:17.417Z,98287.19
2023-03-20T19:58:05.233Z,98285.47
2023-03-20T20:00:57.738Z,98297.19
2023-03-20T20:03:45.435Z,98304.16
2023-03-20T20:06:33.240Z,98301.50
2023-03-20T20:09:20.399Z,98299.13
2023-03-20T20:12:27.555Z,98306.69
2023-03-20T20:15:16.450Z,98304.94
2023-03-20T20:18:03.373Z,98302.75
2023-03-20T20:21:42.563Z,98306.00
2023-03-20T20:23:59.846Z,98301.50
2023-03-20T20:26:55.535Z,98305.84
2023-03-20T20:29:49.487Z,98315.53
2023-03-20T20:32:37.638Z,98312.03
2023-03-20T20:36:01.958Z,98313.16
2023-03-20T20:38:49.374Z,98303.69
2023-03-20T20:41:37.610Z,98311.47
